createdAt,value
2023-03-24T00:02:13.706Z,9.20
2023-03-24T00:04:48.100Z,9.20
2023-03-24T00:07:16.400Z,9.20
2023-03-24T00:09:45.388Z,9.10
2023-03-24T00:12:14.702Z,9.00
2023-03-24T00:14:42.531Z,8.70
2023-03-24T00:17:10.409Z,8.50
2023-03-24T00:19:38.479Z,8.50
2023-03-24T00:22:08.398Z,8.50
2023-03-24T00:24:36.350Z,8.70
2023-03-24T00:27:05.647Z,8.80
2023-03-24T00:29:33.821Z,8.90
2023-03-24T00:32:01.585Z,8.80
2023-03-24T00:34:29.556Z,8.50
2023-03-24T00:36:57.340Z,8.40
2023-03-24T00:39:25.793Z,8.40
2023-03-24T00:41:55.316Z,8.40
2023-03-24T00:44:23.220Z,8.60
2023-03-24T00:46:58.439Z,8.70
2023-03-24T00:49:45.217Z,8.80
2023-03-24T00:52:15.960Z,9.00
2023-03-24T00:54:46.067Z,9.10
2023-03-24T00:57:22.011Z,9.20
2023-03-24T00:59:51.242Z,9.20
2023-03-24T01:02:24.700Z,9.30
2023-03-24T01:04:55.050Z,8.70
2023-03-24T01:07:25.261Z,8.50
2023-03-24T01:09:59.888Z,8.30
2023-03-24T01:12:31.378Z,8.20
2023-03-24T01:15:03.718Z,8.40
2023-03-24T01:17:31.989Z,8.50
2023-03-24T01:19:59.651Z,8.70
2023-03-24T01:22:29.964Z,8.60
2023-03-24T01:24:57.625Z,8.50
2023-03-24T01:27:26.097Z,8.40
2023-03-24T01:29:59.737Z,8.20
2023-03-24T01:32:30.084Z,7.90
2023-03-24T01:34:57.899Z,7.60
2023-03-24T01:37:28.316Z,7.60
2023-03-24T01:39:56.497Z,7.50
2023-03-24T01:42:26.615Z,7.60
2023-03-24T01:45:01.770Z,7.60
2023-03-24T01:47:29.615Z,7.70
2023-03-24T01:50:02.718Z,7.80
2023-03-24T01:52:36.007Z,7.80
2023-03-24T01:55:11.384Z,7.90
2023-03-24T01:57:44.239Z,7.90
2023-03-24T02:00:15.146Z,7.80
2023-03-24T02:03:08.041Z,7.70
2023-03-24T02:05:45.402Z,7.60
2023-03-24T02:08:25.957Z,7.70
2023-03-24T02:10:55.579Z,7.80
2023-03-24T02:13:25.333Z,8.10
2023-03-24T02:16:19.188Z,8.30
2023-03-24T02:19:00.742Z,8.30
2023-03-24T02:22:01.881Z,8.30
2023-03-24T02:24:33.042Z,8.50
2023-03-24T02:27:23.024Z,8.40
2023-03-24T02:30:16.004Z,8.10
2023-03-24T02:32:49.827Z,7.80
2023-03-24T02:35:20.561Z,7.60
2023-03-24T02:38:00.804Z,7.60
2023-03-24T02:40:54.538Z,7.70
2023-03-24T02:43:37.245Z,7.90
2023-03-24T02:46:14.024Z,7.90
2023-03-24T02:49:04.309Z,7.70
2023-03-24T02:51:56.421Z,7.70
2023-03-24T02:54:35.277Z,7.90
2023-03-24T02:57:31.252Z,8.00
2023-03-24T03:00:49.035Z,8.00
2023-03-24T03:03:41.653Z,8.00
2023-03-24T03:06:31.211Z,8.00
2023-03-24T03:09:03.030Z,8.10
2023-03-24T03:11:30.768Z,8.20
2023-03-24T03:14:04.977Z,8.30
2023-03-24T03:16:46.646Z,8.40
2023-03-24T03:19:22.887Z,8.40
2023-03-24T03:21:52.541Z,8.60
2023-03-24T03:24:27.760Z,8.70
2023-03-24T03:27:02.203Z,8.70
2023-03-24T03:29:35.596Z,8.60
2023-03-24T03:32:09.496Z,8.80
2023-03-24T03:34:40.248Z,8.80
2023-03-24T03:37:38.000Z,8.80
2023-03-24T03:40:18.162Z,8.80
2023-03-24T03:42:51.568Z,8.80
2023-03-24T03:45:19.419Z,8.80
2023-03-24T03:47:48.537Z,8.80
2023-03-24T03:50:16.564Z,9.10
2023-03-24T03:52:45.086Z,9.20
2023-03-24T03:55:14.162Z,9.00
2023-03-24T03:57:46.219Z,9.00
2023-03-24T04:00:25.518Z,8.90
2023-03-24T04:03:58.907Z,8.90
2023-03-24T04:07:09.142Z,8.90
2023-03-24T04:10:03.814Z,9.00
2023-03-24T04:12:57.679Z,9.10
2023-03-24T04:15:57.814Z,9.10
2023-03-24T04:19:19.532Z,9.00
2023-03-24T04:21:54.056Z,9.00
2023-03-24T04:24:50.709Z,9.00
2023-03-24T04:27:39.059Z,8.90
2023-03-24T04:30:44.600Z,8.90
2023-03-24T04:33:34.292Z,9.00
2023-03-24T04:36:19.479Z,9.00
2023-03-24T04:39:19.649Z,8.90
2023-03-24T04:41:53.070Z,8.90
2023-03-24T04:44:27.480Z,8.90
2023-03-24T04:47:29.011Z,8.90
2023-03-24T04:50:32.842Z,9.00
2023-03-24T04:53:04.522Z,9.10
2023-03-24T04:55:34.899Z,9.10
2023-03-24T04:58:02.807Z,9.20
2023-03-24T05:00:32.703Z,9.30
2023-03-24T05:03:00.647Z,9.20
2023-03-24T05:05:29.248Z,9.10
2023-03-24T05:08:00.490Z,9.20
2023-03-24T05:10:29.401Z,9.20
2023-03-24T05:12:59.037Z,9.20
2023-03-24T05:15:27.269Z,9.20
2023-03-24T05:18:11.240Z,9.10
2023-03-24T05:20:38.891Z,9.10
2023-03-24T05:23:17.701Z,9.10
2023-03-24T05:25:47.609Z,9.00
2023-03-24T05:28:17.132Z,8.90
2023-03-24T05:30:45.246Z,8.90
2023-03-24T05:33:22.878Z,8.70
2023-03-24T05:35:50.632Z,8.70
2023-03-24T05:38:18.363Z,8.60
2023-03-24T05:40:49.852Z,8.60
2023-03-24T05:43:19.157Z,8.60
2023-03-24T05:46:00.374Z,8.60
2023-03-24T05:48:31.841Z,8.70
2023-03-24T05:51:10.932Z,8.80
2023-03-24T05:53:38.813Z,8.90
2023-03-24T05:56:07.200Z,9.00
2023-03-24T05:58:55.899Z,8.90
2023-03-24T06:01:28.998Z,9.00
2023-03-24T06:04:07.667Z,9.00
2023-03-24T06:06:35.605Z,9.10
2023-03-24T06:09:04.795Z,9.20
2023-03-24T06:11:32.708Z,9.30
2023-03-24T06:14:08.481Z,9.40
2023-03-24T06:16:50.530Z,9.40
2023-03-24T06:19:22.689Z,9.40
2023-03-24T06:22:02.728Z,9.50
2023-03-24T06:24:35.287Z,9.50
2023-03-24T06:27:09.057Z,9.50
2023-03-24T06:29:37.171Z,9.60
2023-03-24T06:32:05.758Z,9.70
2023-03-24T06:34:46.942Z,9.80
2023-03-24T06:37:23.083Z,9.70
2023-03-24T06:39:52.439Z,9.60
2023-03-24T06:42:27.313Z,9.60
2023-03-24T06:44:55.547Z,9.60
2023-03-24T06:47:23.485Z,9.80
2023-03-24T06:49:51.662Z,9.90
2023-03-24T06:52:20.032Z,9.90
2023-03-24T06:54:48.286Z,10.00
2023-03-24T06:57:24.982Z,10.20
2023-03-24T07:00:11.978Z,10.40
2023-03-24T07:02:53.695Z,10.40
2023-03-24T07:05:22.259Z,10.30
2023-03-24T07:08:23.645Z,10.30
2023-03-24T07:10:41.454Z,10.30
2023-03-24T07:13:09.805Z,10.30
2023-03-24T07:15:42.086Z,10.40
2023-03-24T07:18:11.892Z,10.40
2023-03-24T07:20:43.340Z,10.50
2023-03-24T07:23:19.120Z,10.70
2023-03-24T07:25:47.061Z,10.80
2023-03-24T07:28:34.762Z,11.00
2023-03-24T07:31:06.919Z,11.20
2023-03-24T07:33:35.227Z,11.30
2023-03-24T07:36:08.577Z,11.30
2023-03-24T07:38:38.648Z,11.50
2023-03-24T07:41:10.452Z,11.60
2023-03-24T07:43:42.480Z,11.60
2023-03-24T07:46:22.154Z,11.60
2023-03-24T07:48:53.354Z,11.50
2023-03-24T07:51:21.223Z,11.70
2023-03-24T07:54:06.993Z,11.70
2023-03-24T07:56:42.675Z,11.70
2023-03-24T07:59:12.517Z,11.70
2023-03-24T08:01:56.725Z,11.60
2023-03-24T08:05:19.671Z,11.70
2023-03-24T08:07:58.603Z,11.70
2023-03-24T08:10:28.825Z,11.70
2023-03-24T08:12:57.510Z,11.60
2023-03-24T08:15:27.238Z,11.50
2023-03-24T08:17:56.990Z,11.70
2023-03-24T08:20:27.514Z,11.60
2023-03-24T08:22:55.914Z,11.60
2023-03-24T08:25:25.973Z,11.50
2023-03-24T08:27:54.539Z,11.50
2023-03-24T08:30:25.258Z,11.50
2023-03-24T08:32:56.337Z,11.60
2023-03-24T08:35:28.551Z,11.80
2023-03-24T08:38:06.132Z,11.90
2023-03-24T08:40:35.786Z,11.90
2023-03-24T08:43:08.689Z,11.90
2023-03-24T08:45:37.627Z,12.00
2023-03-24T08:48:07.686Z,12.10
2023-03-24T08:50:41.024Z,12.20
2023-03-24T08:53:09.892Z,12.50
2023-03-24T08:55:41.722Z,12.70
2023-03-24T08:58:23.079Z,12.80
2023-03-24T09:00:53.693Z,12.90
2023-03-24T09:03:23.032Z,13.00
2023-03-24T09:05:51.493Z,13.00
2023-03-24T09:08:20.058Z,13.00
2023-03-24T09:10:47.815Z,13.00
2023-03-24T09:13:16.547Z,12.90
2023-03-24T09:15:54.636Z,13.00
2023-03-24T09:18:22.503Z,13.10
2023-03-24T09:20:52.065Z,13.20
2023-03-24T09:23:21.808Z,13.30
2023-03-24T09:25:51.474Z,13.30
2023-03-24T09:28:20.330Z,13.30
2023-03-24T09:30:48.525Z,13.40
2023-03-24T09:33:17.173Z,13.40
2023-03-24T09:35:45.121Z,13.50
2023-03-24T09:38:13.106Z,13.50
2023-03-24T09:40:43.857Z,13.50
2023-03-24T09:43:36.701Z,13.50
2023-03-24T09:46:07.297Z,13.60
2023-03-24T09:48:56.941Z,13.50
2023-03-24T09:51:29.716Z,13.50
2023-03-24T09:54:01.535Z,13.50
2023-03-24T09:56:30.953Z,13.50
2023-03-24T09:59:20.182Z,13.40
2023-03-24T10:01:49.124Z,13.40
2023-03-24T10:04:20.723Z,13.30
2023-03-24T10:06:53.388Z,13.10
2023-03-24T10:09:29.088Z,13.10
2023-03-24T10:12:21.442Z,13.00
2023-03-24T10:14:52.335Z,12.90
2023-03-24T10:17:40.115Z,12.80
2023-03-24T10:20:20.017Z,12.60
2023-03-24T10:23:32.555Z,12.60
2023-03-24T10:26:04.812Z,12.40
2023-03-24T10:28:46.480Z,12.30
2023-03-24T10:31:17.474Z,12.30
2023-03-24T10:33:46.552Z,12.30
2023-03-24T10:36:16.634Z,12.20
2023-03-24T10:38:44.744Z,12.20
2023-03-24T10:41:27.734Z,12.40
2023-03-24T10:43:57.473Z,12.30
2023-03-24T10:46:28.287Z,12.20
2023-03-24T10:49:18.578Z,12.20
2023-03-24T10:51:49.833Z,12.00
2023-03-24T10:54:22.162Z,12.00
2023-03-24T10:56:59.339Z,12.00
2023-03-24T10:59:38.216Z,12.00
2023-03-24T11:02:18.984Z,11.90
2023-03-24T11:05:17.395Z,11.90
2023-03-24T11:07:47.563Z,11.90
2023-03-24T11:10:25.658Z,11.90
2023-03-24T11:12:57.995Z,11.90
2023-03-24T11:15:31.743Z,11.90
2023-03-24T11:18:01.730Z,12.00
2023-03-24T11:20:32.103Z,11.90
2023-03-24T11:23:32.393Z,11.90
2023-03-24T11:26:08.149Z,11.90
2023-03-24T11:28:41.575Z,11.90
2023-03-24T11:31:24.604Z,11.90
2023-03-24T11:34:09.365Z,11.90
2023-03-24T11:36:45.449Z,11.80
2023-03-24T11:39:19.489Z,11.70
2023-03-24T11:42:02.008Z,11.70
2023-03-24T11:44:38.720Z,11.70
2023-03-24T11:47:16.998Z,11.70
2023-03-24T11:50:00.859Z,11.70
2023-03-24T11:52:33.917Z,11.80
2023-03-24T11:55:01.813Z,11.70
2023-03-24T11:57:58.656Z,11.70
2023-03-24T12:00:34.972Z,11.80
2023-03-24T12:03:34.381Z,11.90
2023-03-24T12:06:23.953Z,11.70
2023-03-24T12:08:54.428Z,11.80
2023-03-24T12:11:45.420Z,12.00
2023-03-24T12:14:19.430Z,12.20
2023-03-24T12:17:10.542Z,12.50
2023-03-24T12:19:53.184Z,12.70
2023-03-24T12:22:47.445Z,12.80
2023-03-24T12:25:28.616Z,13.00
2023-03-24T12:28:05.591Z,13.20
2023-03-24T12:30:59.722Z,13.60
2023-03-24T12:33:40.976Z,14.00
2023-03-24T12:36:31.812Z,13.90
2023-03-24T12:39:10.793Z,14.10
2023-03-24T12:41:50.453Z,14.10
2023-03-24T12:44:39.692Z,14.10
2023-03-24T12:47:29.586Z,14.00
2023-03-24T12:50:19.963Z,14.10
2023-03-24T12:53:08.726Z,14.10
2023-03-24T12:56:01.504Z,14.10
2023-03-24T12:58:50.258Z,14.10
2023-03-24T13:01:25.605Z,14.20
2023-03-24T13:03:59.784Z,14.00
2023-03-24T13:06:39.144Z,14.00
2023-03-24T13:09:18.791Z,14.00
2023-03-24T13:11:55.659Z,14.00
2023-03-24T13:14:30.067Z,14.00
2023-03-24T13:17:08.377Z,13.90
2023-03-24T13:19:38.077Z,14.00
2023-03-24T13:22:12.506Z,14.00
2023-03-24T13:24:42.135Z,14.00
2023-03-24T13:27:16.825Z,14.10
2023-03-24T13:30:09.263Z,14.20
2023-03-24T13:32:44.741Z,14.30
2023-03-24T13:36:04.136Z,14.30
2023-03-24T13:38:44.447Z,14.20
2023-03-24T13:41:17.557Z,14.10
2023-03-24T13:43:51.777Z,13.90
2023-03-24T13:46:23.835Z,13.90
2023-03-24T13:48:55.378Z,14.00
2023-03-24T13:51:25.803Z,13.80
2023-03-24T13:54:23.260Z,13.80
2023-03-24T13:57:01.905Z,13.70
2023-03-24T13:59:39.966Z,13.60
2023-03-24T14:02:22.328Z,13.60
2023-03-24T14:04:50.251Z,13.70
2023-03-24T14:07:49.862Z,13.70
2023-03-24T14:10:19.266Z,13.60
2023-03-24T14:13:02.888Z,13.60
2023-03-24T14:15:45.601Z,13.60
2023-03-24T14:18:25.668Z,13.50
2023-03-24T14:21:07.909Z,13.50
2023-03-24T14:23:43.697Z,13.60
2023-03-24T14:26:21.017Z,13.70
2023-03-24T14:28:51.933Z,13.80
2023-03-24T14:31:27.049Z,13.90
2023-03-24T14:33:54.725Z,13.90
2023-03-24T14:36:44.698Z,13.80
2023-03-24T14:39:41.774Z,13.70
2023-03-24T14:42:32.079Z,13.60
2023-03-24T14:45:28.025Z,13.60
2023-03-24T14:48:01.000Z,13.60
2023-03-24T14:50:29.557Z,13.50
2023-03-24T14:53:03.435Z,13.40
2023-03-24T14:55:33.249Z,13.40
2023-03-24T14:58:09.711Z,13.30
2023-03-24T15:01:07.588Z,13.30
2023-03-24T15:03:50.556Z,13.20
2023-03-24T15:06:23.259Z,13.00
2023-03-24T15:08:59.410Z,13.10
2023-03-24T15:11:35.900Z,13.00
2023-03-24T15:14:07.461Z,13.00
2023-03-24T15:16:38.063Z,12.90
2023-03-24T15:19:18.214Z,12.90
2023-03-24T15:22:00.467Z,12.90
2023-03-24T15:24:31.879Z,12.80
2023-03-24T15:27:17.267Z,12.70
2023-03-24T15:29:46.322Z,12.50
2023-03-24T15:32:20.323Z,12.30
2023-03-24T15:34:54.261Z,12.20
2023-03-24T15:37:34.565Z,12.10
2023-03-24T15:40:15.356Z,12.00
2023-03-24T15:42:44.794Z,11.90
2023-03-24T15:46:01.113Z,11.90
2023-03-24T15:48:38.522Z,11.80
2023-03-24T15:51:09.354Z,11.80
2023-03-24T15:53:49.108Z,11.80
2023-03-24T15:56:21.054Z,11.70
2023-03-24T15:58:59.950Z,11.80
2023-03-24T16:01:36.472Z,11.70
2023-03-24T16:04:07.681Z,11.60
2023-03-24T16:06:36.277Z,11.60
2023-03-24T16:09:16.214Z,11.50
2023-03-24T16:11:43.675Z,11.60
2023-03-24T16:14:30.556Z,11.50
2023-03-24T16:17:02.953Z,11.50
2023-03-24T16:19:30.837Z,11.50
2023-03-24T16:21:58.396Z,11.50
2023-03-24T16:24:33.840Z,11.40
2023-03-24T16:27:01.492Z,11.20
2023-03-24T16:29:29.247Z,11.00
2023-03-24T16:31:57.337Z,10.90
2023-03-24T16:34:25.419Z,10.80
2023-03-24T16:36:54.313Z,10.60
2023-03-24T16:39:26.966Z,10.40
2023-03-24T16:41:56.179Z,10.40
2023-03-24T16:44:27.129Z,10.20
2023-03-24T16:46:56.148Z,10.20
2023-03-24T16:49:24.125Z,10.10
2023-03-24T16:51:53.367Z,10.00
2023-03-24T16:54:21.633Z,9.90
2023-03-24T16:56:50.903Z,9.90
2023-03-24T16:59:19.945Z,9.90
2023-03-24T17:01:47.929Z,9.80
2023-03-24T17:04:22.346Z,9.80
2023-03-24T17:06:54.842Z,9.80
2023-03-24T17:09:23.279Z,9.70
2023-03-24T17:11:56.463Z,9.70
2023-03-24T17:14:24.731Z,9.70
2023-03-24T17:16:53.712Z,9.70
2023-03-24T17:19:23.629Z,9.70
2023-03-24T17:22:03.791Z,9.70
2023-03-24T17:24:38.123Z,9.60
2023-03-24T17:27:19.105Z,9.70
2023-03-24T17:29:47.880Z,9.60
2023-03-24T17:32:16.176Z,9.60
2023-03-24T17:34:45.465Z,9.60
2023-03-24T17:37:13.311Z,9.50
2023-03-24T17:39:41.324Z,9.40
2023-03-24T17:42:09.103Z,9.40
2023-03-24T17:44:36.930Z,9.40
2023-03-24T17:47:04.903Z,9.50
2023-03-24T17:49:33.470Z,9.40
2023-03-24T17:52:01.167Z,9.40
2023-03-24T17:54:29.221Z,9.40
2023-03-24T17:56:57.173Z,9.40
2023-03-24T17:59:26.587Z,9.40
2023-03-24T18:01:55.407Z,9.40
2023-03-24T18:04:23.971Z,9.30
2023-03-24T18:06:51.513Z,9.30
2023-03-24T18:09:19.353Z,9.30
2023-03-24T18:11:47.923Z,9.30
2023-03-24T18:14:15.905Z,9.30
2023-03-24T18:16:43.583Z,9.30
2023-03-24T18:19:12.163Z,9.30
2023-03-24T18:21:40.618Z,9.30
2023-03-24T18:24:08.997Z,9.30
2023-03-24T18:26:37.231Z,9.20
2023-03-24T18:29:06.094Z,9.20
2023-03-24T18:31:34.246Z,9.20
2023-03-24T18:34:02.081Z,9.20
2023-03-24T18:36:31.116Z,9.10
2023-03-24T18:39:11.371Z,9.10
2023-03-24T18:41:39.564Z,9.20
2023-03-24T18:44:09.942Z,9.20
2023-03-24T18:46:38.438Z,9.20
2023-03-24T18:49:07.216Z,9.30
2023-03-24T18:51:36.018Z,9.30
2023-03-24T18:54:03.886Z,9.20
2023-03-24T18:56:31.940Z,9.20
2023-03-24T18:58:59.831Z,9.10
2023-03-24T19:01:27.532Z,9.10
2023-03-24T19:03:55.336Z,9.10
2023-03-24T19:06:26.281Z,9.00
2023-03-24T19:08:54.130Z,9.00
2023-03-24T19:11:22.208Z,9.10
2023-03-24T19:13:55.500Z,9.10
2023-03-24T19:16:23.636Z,9.10
2023-03-24T19:18:51.361Z,9.10
2023-03-24T19:21:23.937Z,9.10
2023-03-24T19:23:52.984Z,9.10
2023-03-24T19:26:20.892Z,9.00
2023-03-24T19:28:48.946Z,9.00
2023-03-24T19:31:20.068Z,8.90
2023-03-24T19:33:47.935Z,9.00
2023-03-24T19:36:15.819Z,9.00
2023-03-24T19:38:44.196Z,8.90
2023-03-24T19:41:14.623Z,8.90
2023-03-24T19:43:42.709Z,8.90
2023-03-24T19:46:10.574Z,8.90
2023-03-24T19:48:38.548Z,8.80
2023-03-24T19:51:06.294Z,8.80
2023-03-24T19:53:34.514Z,8.70
2023-03-24T19:56:03.297Z,8.80
2023-03-24T19:58:31.470Z,8.80
2023-03-24T20:00:59.020Z,8.80
2023-03-24T20:03:28.948Z,8.80
2023-03-24T20:06:04.078Z,8.80
2023-03-24T20:08:31.822Z,8.80
2023-03-24T20:10:59.519Z,8.90
2023-03-24T20:13:27.669Z,8.90
2023-03-24T20:15:55.648Z,8.90
2023-03-24T20:18:25.909Z,8.90
2023-03-24T20:21:01.734Z,8.80
2023-03-24T20:23:29.448Z,8.80
2023-03-24T20:26:04.090Z,8.90
2023-03-24T20:28:31.782Z,8.90
2023-03-24T20:31:01.908Z,8.90
2023-03-24T20:33:32.404Z,8.90
2023-03-24T20:36:00.288Z,8.90
2023-03-24T20:38:28.213Z,8.90
2023-03-24T20:41:03.051Z,8.90
2023-03-24T20:43:31.008Z,8.80
2023-03-24T20:45:58.999Z,8.70
2023-03-24T20:48:26.914Z,8.70
2023-03-24T20:50:55.197Z,8.50
2023-03-24T20:53:23.015Z,8.50
2023-03-24T20:56:01.068Z,8.50
2023-03-24T20:58:31.500Z,8.50
2023-03-24T21:01:02.065Z,8.50
2023-03-24T21:03:29.962Z,8.50
2023-03-24T21:05:57.960Z,8.50
2023-03-24T21:08:25.724Z,8.30
2023-03-24T21:10:58.020Z,8.30
2023-03-24T21:13:37.028Z,8.30
2023-03-24T21:16:08.749Z,8.30
2023-03-24T21:18:38.542Z,8.30
2023-03-24T21:21:12.879Z,8.40
2023-03-24T21:23:42.555Z,8.20
2023-03-24T21:26:14.476Z,8.30
2023-03-24T21:28:42.278Z,8.20
2023-03-24T21:31:22.890Z,8.10
2023-03-24T21:33:51.625Z,8.10
2023-03-24T21:36:20.165Z,8.20
2023-03-24T21:38:51.703Z,8.20
2023-03-24T21:41:19.808Z,8.20
2023-03-24T21:43:51.753Z,8.20
2023-03-24T21:46:26.478Z,8.10
2023-03-24T21:48:59.401Z,8.00
2023-03-24T21:51:30.813Z,8.00
2023-03-24T21:54:04.526Z,7.90
2023-03-24T21:56:34.097Z,7.80
2023-03-24T21:59:02.744Z,7.80
2023-03-24T22:01:34.244Z,7.90
2023-03-24T22:04:01.886Z,7.80
2023-03-24T22:06:29.624Z,7.90
2023-03-24T22:09:07.145Z,7.90
2023-03-24T22:11:35.570Z,7.80
2023-03-24T22:14:03.806Z,7.90
2023-03-24T22:16:33.251Z,8.00
2023-03-24T22:19:01.728Z,8.00
2023-03-24T22:21:29.793Z,7.90
2023-03-24T22:23:58.070Z,7.90
2023-03-24T22:26:26.443Z,7.90
2023-03-24T22:28:56.563Z,7.90
2023-03-24T22:31:25.584Z,7.90
2023-03-24T22:33:53.959Z,7.90
2023-03-24T22:36:21.604Z,8.00
2023-03-24T22:38:49.367Z,8.00
2023-03-24T22:41:19.497Z,7.90
2023-03-24T22:43:47.646Z,8.00
2023-03-24T22:46:16.176Z,7.90
2023-03-24T22:48:43.919Z,7.90
2023-03-24T22:51:17.203Z,8.00
2023-03-24T22:53:45.980Z,7.90
2023-03-24T22:56:14.661Z,7.90
2023-03-24T22:58:42.541Z,7.90
2023-03-24T23:01:10.501Z,7.90
2023-03-24T23:03:49.013Z,7.90
2023-03-24T23:06:16.594Z,7.70
2023-03-24T23:08:45.250Z,7.60
2023-03-24T23:11:12.912Z,7.60
2023-03-24T23:13:40.577Z,7.70
2023-03-24T23:16:08.635Z,7.80
2023-03-24T23:18:36.788Z,7.80
2023-03-24T23:21:07.853Z,7.90
2023-03-24T23:23:37.345Z,7.80
2023-03-24T23:26:06.160Z,7.70
2023-03-24T23:28:34.821Z,7.80
2023-03-24T23:31:02.508Z,7.80
2023-03-24T23:33:30.291Z,7.80
2023-03-24T23:35:59.086Z,7.70
2023-03-24T23:38:27.434Z,7.70
2023-03-24T23:40:54.991Z,7.70
2023-03-24T23:43:23.052Z,7.60
2023-03-24T23:45:57.496Z,7.40
2023-03-24T23:48:25.562Z,7.30
2023-03-24T23:51:02.406Z,7.30
2023-03-24T23:53:31.303Z,7.20
2023-03-24T23:56:07.794Z,7.20
2023-03-24T23:58:38.268Z,7.30
